PADL/DLG METAR and TAF weather

Enter ICAO airport designator
Station Type Date Time Source
PADL METAR 2020/08/10 23:56 UTC NOAA

PADL 102356Z 20011G16KT 10SM SCT050 16/10 A2999 RMK AO2 SLP158 T01560100 10183 20122 56005


Station Type Date Time Source
PADL Decoded METAR 2020/08/10 23:56 UTC NOAA

Dillingham, Dillingham Airport, AK, United States (PADL) 59-03N 158-31W 29M
Aug 10, 2020 - 07:56 PM EDT / 2020.08.10 2356 UTC
Wind: from the SSW (200 degrees) at 13 MPH (11 KT) gusting to 18 MPH (16 KT):0
Visibility: 10 mile(s):0
Sky conditions: partly cloudy
Temperature: 60.1 F (15.6 C)
Dew Point: 50.0 F (10.0 C)
Relative Humidity: 69%
Pressure (altimeter): 29.99 in. Hg (1015 hPa)
Pressure tendency: 0.01 inches (0.5 hPa) lower than three hours ago
ob: PADL 102356Z 20011G16KT 10SM SCT050 16/10 A2999 RMK AO2 SLP158 T01560100 10183 20122 56005
cycle: 0

Station Type Date Time Source
PADL TAF 2020/08/10 18:42 UTC NOAA

TAF PADL 101739Z 1018/1118 VRB03KT P6SM FEW120
FM102300 19012G18KT P6SM SCT100
FM110600 VRB06KT P6SM SCT100
FM110800 VRB03KT P6SM VCFG SCT002 BKN100

Example: see airport list